Terminal Aerodrome Forecast
Issued by NWS

Home | Current Version | Previous Version | Text Only | Print | Product List | Glossary On
Versions: 1 2 3 4 5 6 7 8 9 10 11 12 13 14 15 16 17 18
000
FTUS45 KRIW 040540
TAFJAC
TAF
KJAC 040540Z 0406/0506 VRB06KT P6SM VCSH FEW070 BKN100
     FM040700 VRB06KT P6SM SCT100
     FM041600 21012G18KT P6SM FEW090
     FM041800 20017G28KT P6SM SCT090
     FM050100 22008G16KT P6SM VCTS SCT080CB BKN100
      AMD LTD TO CLD VIS AND WIND=

USA.gov is the U.S. government's official web portal to all federal, state and local government web resources and services.